createdAt,value
2023-03-05T00:02:06.625Z,3.45
2023-03-05T00:04:39.123Z,2.88
2023-03-05T00:07:14.277Z,5.35
2023-03-05T00:09:46.254Z,3.60
2023-03-05T00:12:18.824Z,5.88
2023-03-05T00:14:51.300Z,3.53
2023-03-05T00:17:23.295Z,4.57
2023-03-05T00:19:57.100Z,3.40
2023-03-05T00:22:30.441Z,4.47
2023-03-05T00:25:02.890Z,5.22
2023-03-05T00:27:34.852Z,9.07
2023-03-05T00:30:09.285Z,4.07
2023-03-05T00:32:41.629Z,6.70
2023-03-05T00:35:14.313Z,3.80
2023-03-05T00:37:47.626Z,6.00
2023-03-05T00:40:20.062Z,4.22
2023-03-05T00:42:52.019Z,5.20
2023-03-05T00:45:24.267Z,4.00
2023-03-05T00:47:58.224Z,4.97
2023-03-05T00:50:30.299Z,6.75
2023-03-05T00:53:03.808Z,5.60
2023-03-05T00:55:36.292Z,6.88
2023-03-05T00:58:08.525Z,5.78
2023-03-05T01:00:40.910Z,5.82
2023-03-05T01:03:12.886Z,2.35
2023-03-05T01:05:45.127Z,4.32
2023-03-05T01:08:18.559Z,11.32
2023-03-05T01:10:50.617Z,8.48
2023-03-05T01:13:22.776Z,5.80
2023-03-05T01:15:54.904Z,3.75
2023-03-05T01:18:26.859Z,10.02
2023-03-05T01:20:59.009Z,4.07
2023-03-05T01:23:34.530Z,11.52
2023-03-05T01:26:08.621Z,6.15
2023-03-05T01:28:40.845Z,6.80
2023-03-05T01:31:13.201Z,8.50
2023-03-05T01:33:45.208Z,6.20
2023-03-05T01:36:17.268Z,8.85
2023-03-05T01:38:51.364Z,7.53
2023-03-05T01:41:23.731Z,5.82
2023-03-05T01:43:55.735Z,7.68
2023-03-05T01:46:31.173Z,7.82
2023-03-05T01:49:13.833Z,2.20
2023-03-05T01:51:56.563Z,8.32
2023-03-05T01:54:35.424Z,6.97
2023-03-05T01:57:10.885Z,6.38
2023-03-05T01:59:45.904Z,5.22
2023-03-05T02:02:19.754Z,4.03
2023-03-05T02:04:55.462Z,7.32
2023-03-05T02:07:27.938Z,3.30
2023-03-05T02:10:01.301Z,3.20
2023-03-05T02:12:33.333Z,1.98
2023-03-05T02:15:06.740Z,5.07
2023-03-05T02:17:38.710Z,6.07
2023-03-05T02:20:14.385Z,5.22
2023-03-05T02:22:47.763Z,8.63
2023-03-05T02:25:21.814Z,10.90
2023-03-05T02:27:58.548Z,15.98
2023-03-05T02:30:31.483Z,15.50
2023-03-05T02:33:03.618Z,15.38
2023-03-05T02:35:35.949Z,16.60
2023-03-05T02:38:09.958Z,15.10
2023-03-05T02:40:43.683Z,21.85
2023-03-05T02:43:16.001Z,24.05
2023-03-05T02:45:48.138Z,16.30
2023-03-05T02:48:21.012Z,15.75
2023-03-05T02:50:53.565Z,14.38
2023-03-05T02:53:26.968Z,18.52
2023-03-05T02:55:59.136Z,17.05
2023-03-05T02:58:32.125Z,15.18
2023-03-05T03:01:04.424Z,30.10
2023-03-05T03:03:36.807Z,14.45
2023-03-05T03:06:08.797Z,17.35
2023-03-05T03:08:42.146Z,12.70
2023-03-05T03:11:14.308Z,8.43
2023-03-05T03:13:46.267Z,9.75
2023-03-05T03:16:18.425Z,8.75
2023-03-05T03:18:50.389Z,9.95
2023-03-05T03:21:24.568Z,8.98
2023-03-05T03:23:57.932Z,13.57
2023-03-05T03:26:30.605Z,8.70
2023-03-05T03:29:02.592Z,10.95
2023-03-05T03:31:34.915Z,10.80
2023-03-05T03:34:06.945Z,6.38
2023-03-05T03:36:39.182Z,5.45
2023-03-05T03:39:14.393Z,7.45
2023-03-05T03:41:48.483Z,6.55
2023-03-05T03:44:21.998Z,3.25
2023-03-05T03:46:55.503Z,8.63
2023-03-05T03:49:28.594Z,4.55
2023-03-05T03:52:00.614Z,7.47
2023-03-05T03:54:34.194Z,8.43
2023-03-05T03:57:06.384Z,10.98
2023-03-05T03:59:38.360Z,7.50
2023-03-05T04:02:10.350Z,10.48
2023-03-05T04:04:42.294Z,8.35
2023-03-05T04:07:14.261Z,5.82
2023-03-05T04:09:47.661Z,7.85
2023-03-05T04:12:19.654Z,9.35
2023-03-05T04:14:51.778Z,6.25
2023-03-05T04:17:23.787Z,7.47
2023-03-05T04:19:55.737Z,8.10
2023-03-05T04:22:28.095Z,6.40
2023-03-05T04:25:03.797Z,5.10
2023-03-05T04:27:37.635Z,4.53
2023-03-05T04:30:14.772Z,5.97
2023-03-05T04:32:46.780Z,2.58
2023-03-05T04:35:19.268Z,5.55
2023-03-05T04:37:51.318Z,1.75
2023-03-05T04:40:24.686Z,3.90
2023-03-05T04:42:56.697Z,3.33
2023-03-05T04:45:28.696Z,2.65
2023-03-05T04:48:00.704Z,4.10
2023-03-05T04:50:32.895Z,5.60
2023-03-05T04:53:05.160Z,9.68
2023-03-05T04:55:38.537Z,9.30
2023-03-05T04:58:10.608Z,10.32
2023-03-05T05:00:42.589Z,8.40
2023-03-05T05:03:14.726Z,8.60
2023-03-05T05:05:54.655Z,7.80
2023-03-05T05:08:26.944Z,8.57
2023-03-05T05:11:02.608Z,3.83
2023-03-05T05:13:35.378Z,7.55
2023-03-05T05:16:07.767Z,5.10
2023-03-05T05:18:39.754Z,2.35
2023-03-05T05:21:13.844Z,3.78
2023-03-05T05:23:45.858Z,5.72
2023-03-05T05:26:19.227Z,6.55
2023-03-05T05:28:51.189Z,6.25
2023-03-05T05:31:23.260Z,5.78
2023-03-05T05:33:55.289Z,2.60
2023-03-05T05:36:27.338Z,4.25
2023-03-05T05:38:59.346Z,5.13
2023-03-05T05:41:32.664Z,7.80
2023-03-05T05:44:05.014Z,6.50
2023-03-05T05:46:37.112Z,4.57
2023-03-05T05:49:09.102Z,8.38
2023-03-05T05:51:41.373Z,7.68
2023-03-05T05:54:13.883Z,4.38
2023-03-05T05:56:47.211Z,7.57
2023-03-05T05:59:19.166Z,8.02
2023-03-05T06:01:51.261Z,2.67
2023-03-05T06:04:23.311Z,6.28
2023-03-05T06:06:55.334Z,3.42
2023-03-05T06:09:27.594Z,3.58
2023-03-05T06:12:00.928Z,8.35
2023-03-05T06:14:32.946Z,4.68
2023-03-05T06:17:05.172Z,6.22
2023-03-05T06:19:37.127Z,4.32
2023-03-05T06:22:09.092Z,4.95
2023-03-05T06:24:41.052Z,7.50
2023-03-05T06:27:14.430Z,5.32
2023-03-05T06:29:46.382Z,7.07
2023-03-05T06:32:18.308Z,4.32
2023-03-05T06:34:50.344Z,4.57
2023-03-05T06:37:22.346Z,5.15
2023-03-05T06:39:54.421Z,5.53
2023-03-05T06:42:27.781Z,6.60
2023-03-05T06:44:59.704Z,8.15
2023-03-05T06:47:32.575Z,14.90
2023-03-05T06:50:05.364Z,22.40
2023-03-05T06:52:38.895Z,5.47
2023-03-05T06:55:11.307Z,4.95
2023-03-05T06:57:45.049Z,22.63
2023-03-05T07:00:17.581Z,6.38
2023-03-05T07:02:49.624Z,8.73
2023-03-05T07:05:21.616Z,20.83
2023-03-05T07:07:53.588Z,11.13
2023-03-05T07:10:25.546Z,10.65
2023-03-05T07:12:58.979Z,11.38
2023-03-05T07:15:30.962Z,10.23
2023-03-05T07:18:02.977Z,6.25
2023-03-05T07:20:35.574Z,2.42
2023-03-05T07:23:07.624Z,4.45
2023-03-05T07:25:39.841Z,3.63
2023-03-05T07:28:13.177Z,5.15
2023-03-05T07:30:45.106Z,4.93
2023-03-05T07:33:17.066Z,9.02
2023-03-05T07:35:49.001Z,8.38
2023-03-05T07:38:21.355Z,8.32
2023-03-05T07:40:53.605Z,7.18
2023-03-05T07:43:27.009Z,8.75
2023-03-05T07:45:59.045Z,10.38
2023-03-05T07:48:31.078Z,9.75
2023-03-05T07:51:03.732Z,30.02
2023-03-05T07:53:35.886Z,18.35
2023-03-05T07:56:08.273Z,11.80
2023-03-05T07:58:41.654Z,10.63
2023-03-05T08:01:14.477Z,9.90
2023-03-05T08:03:47.421Z,5.60
2023-03-05T08:06:19.435Z,4.90
2023-03-05T08:08:51.613Z,5.43
2023-03-05T08:11:23.675Z,5.05
2023-03-05T08:13:59.381Z,5.63
2023-03-05T08:16:31.503Z,6.30
2023-03-05T08:19:03.469Z,16.35
2023-03-05T08:21:36.505Z,10.73
2023-03-05T08:24:09.445Z,6.85
2023-03-05T08:26:41.727Z,7.07
2023-03-05T08:29:15.094Z,7.75
2023-03-05T08:31:47.323Z,8.77
2023-03-05T08:34:20.244Z,4.75
2023-03-05T08:36:52.169Z,3.05
2023-03-05T08:39:24.132Z,4.80
2023-03-05T08:41:56.141Z,8.10
2023-03-05T08:44:29.557Z,3.83
2023-03-05T08:47:01.510Z,3.10
2023-03-05T08:49:33.705Z,4.95
2023-03-05T08:52:05.907Z,2.03
2023-03-05T08:54:38.719Z,4.28
2023-03-05T08:57:10.683Z,3.55
2023-03-05T08:59:44.005Z,2.50
2023-03-05T09:02:15.910Z,4.25
2023-03-05T09:04:47.900Z,3.22
2023-03-05T09:07:19.853Z,5.07
2023-03-05T09:09:51.797Z,4.57
2023-03-05T09:12:23.729Z,4.93
2023-03-05T09:14:57.406Z,5.38
2023-03-05T09:17:29.383Z,5.07
2023-03-05T09:20:01.501Z,4.60
2023-03-05T09:22:33.504Z,9.23
2023-03-05T09:25:06.728Z,4.45
2023-03-05T09:27:39.086Z,5.57
2023-03-05T09:30:14.183Z,3.25
2023-03-05T09:32:47.213Z,3.92
2023-03-05T09:35:19.407Z,3.08
2023-03-05T09:37:52.656Z,4.60
2023-03-05T09:40:26.024Z,5.32
2023-03-05T09:43:05.766Z,8.00
2023-03-05T09:45:44.494Z,10.70
2023-03-05T09:48:21.618Z,9.35
2023-03-05T09:51:00.024Z,7.68
2023-03-05T09:53:38.891Z,8.20
2023-03-05T09:56:13.714Z,4.38
2023-03-05T09:58:48.652Z,5.97
2023-03-05T10:01:27.146Z,9.50
2023-03-05T10:04:04.073Z,6.00
2023-03-05T10:06:41.860Z,7.88
2023-03-05T10:09:22.037Z,6.72
2023-03-05T10:11:57.530Z,6.20
2023-03-05T10:14:31.261Z,3.72
2023-03-05T10:17:39.632Z,6.80
2023-03-05T10:20:41.345Z,3.25
2023-03-05T10:23:42.021Z,6.97
2023-03-05T10:26:24.261Z,3.28
2023-03-05T10:29:11.753Z,5.55
2023-03-05T10:32:00.954Z,3.33
2023-03-05T10:35:02.211Z,5.75
2023-03-05T10:37:59.344Z,13.10
2023-03-05T10:40:40.833Z,22.35
2023-03-05T10:43:24.084Z,4.00
2023-03-05T10:45:57.206Z,10.05
2023-03-05T10:48:38.091Z,4.30
2023-03-05T10:51:18.472Z,7.22
2023-03-05T10:56:29.340Z,8.57
2023-03-05T10:59:01.386Z,8.45
2023-03-05T11:01:33.396Z,8.15
2023-03-05T11:04:07.378Z,7.80
2023-03-05T11:06:42.447Z,7.70
2023-03-05T11:09:20.299Z,6.32
2023-03-05T11:12:16.920Z,5.10
2023-03-05T11:15:03.817Z,7.55
2023-03-05T11:17:38.960Z,3.50
2023-03-05T11:20:33.502Z,3.63
2023-03-05T11:23:12.045Z,12.40
2023-03-05T11:25:58.845Z,6.07
2023-03-05T11:28:35.485Z,5.82
2023-03-05T11:31:21.939Z,3.83
2023-03-05T11:33:58.297Z,8.30
2023-03-05T11:36:32.346Z,3.35
2023-03-05T11:39:18.470Z,4.05
2023-03-05T11:41:52.722Z,4.05
2023-03-05T11:44:28.538Z,6.80
2023-03-05T11:47:05.089Z,18.42
2023-03-05T11:49:41.818Z,21.17
2023-03-05T11:52:20.628Z,6.75
2023-03-05T11:55:01.832Z,4.18
2023-03-05T11:57:40.747Z,5.05
2023-03-05T12:00:16.161Z,8.73
2023-03-05T12:02:53.324Z,11.90
2023-03-05T12:05:27.108Z,13.50
2023-03-05T12:08:02.223Z,25.98
2023-03-05T12:10:35.617Z,18.58
2023-03-05T12:13:16.631Z,50.50
2023-03-05T12:16:04.027Z,7.85
2023-03-05T12:18:48.556Z,4.35
2023-03-05T12:21:32.883Z,5.15
2023-03-05T12:24:36.715Z,3.25
2023-03-05T12:27:15.838Z,13.00
2023-03-05T12:29:49.424Z,5.53
2023-03-05T12:32:57.866Z,21.70
2023-03-05T12:35:32.282Z,5.93
2023-03-05T12:38:28.401Z,6.35
2023-03-05T12:41:43.030Z,5.35
2023-03-05T12:44:23.780Z,12.07
2023-03-05T12:47:20.136Z,9.77
2023-03-05T12:49:52.287Z,22.83
2023-03-05T12:52:28.221Z,11.48
2023-03-05T12:55:20.196Z,5.60
2023-03-05T12:57:57.422Z,4.38
2023-03-05T13:00:39.167Z,3.67
2023-03-05T13:03:18.090Z,5.75
2023-03-05T13:05:52.288Z,5.03
2023-03-05T13:08:26.269Z,5.85
2023-03-05T13:11:01.103Z,36.17
2023-03-05T13:13:36.218Z,52.72
2023-03-05T13:16:17.764Z,11.30
2023-03-05T13:18:51.164Z,13.25
2023-03-05T13:21:26.864Z,29.90
2023-03-05T13:24:01.340Z,6.65
2023-03-05T13:26:37.836Z,2.70
2023-03-05T13:29:12.639Z,4.80
2023-03-05T13:31:48.143Z,1.92
2023-03-05T13:34:22.767Z,4.88
2023-03-05T13:36:59.196Z,33.38
2023-03-05T13:39:34.475Z,10.35
2023-03-05T13:42:15.883Z,20.00
2023-03-05T13:44:54.821Z,5.70
2023-03-05T13:47:30.605Z,4.97
2023-03-05T13:50:05.976Z,3.38
2023-03-05T13:52:39.095Z,3.17
2023-03-05T13:55:15.697Z,8.77
2023-03-05T13:57:53.170Z,16.02
2023-03-05T14:00:29.176Z,14.05
2023-03-05T14:03:10.062Z,13.82
2023-03-05T14:05:44.619Z,23.60
2023-03-05T14:08:20.281Z,35.13
2023-03-05T14:10:53.242Z,8.27
2023-03-05T14:13:29.287Z,4.40
2023-03-05T14:16:06.467Z,4.15
2023-03-05T14:18:52.521Z,3.25
2023-03-05T14:21:25.160Z,2.97
2023-03-05T14:23:58.122Z,4.90
2023-03-05T14:26:32.277Z,46.65
2023-03-05T14:29:13.850Z,33.67
2023-03-05T14:31:49.901Z,13.25
2023-03-05T14:34:27.336Z,7.28
2023-03-05T14:37:03.544Z,3.63
2023-03-05T14:39:46.703Z,5.50
2023-03-05T14:42:31.345Z,4.40
2023-03-05T14:45:12.652Z,5.10
2023-03-05T14:47:44.784Z,10.38
2023-03-05T14:50:20.216Z,11.52
2023-03-05T14:52:54.612Z,7.68
2023-03-05T14:55:31.652Z,68.78
2023-03-05T14:58:07.147Z,6.22
2023-03-05T15:00:39.298Z,6.03
2023-03-05T15:03:12.356Z,5.10
2023-03-05T15:05:48.798Z,4.63
2023-03-05T15:08:23.774Z,7.93
2023-03-05T15:10:56.102Z,12.70
2023-03-05T15:13:28.147Z,94.55
2023-03-05T15:16:00.374Z,99.15
2023-03-05T15:18:32.551Z,104.53
2023-03-05T15:21:06.108Z,41.92
2023-03-05T15:23:38.591Z,10.82
2023-03-05T15:26:14.264Z,7.88
2023-03-05T15:28:46.321Z,10.68
2023-03-05T15:31:18.524Z,40.85
2023-03-05T15:33:50.646Z,48.30
2023-03-05T15:36:24.086Z,78.80
2023-03-05T15:38:56.061Z,65.70
2023-03-05T15:41:28.287Z,43.75
2023-03-05T15:44:00.231Z,27.65
2023-03-05T15:46:33.304Z,16.65
2023-03-05T15:49:05.418Z,36.58
2023-03-05T15:51:38.977Z,25.90
2023-03-05T15:54:11.041Z,163.77
2023-03-05T15:56:43.206Z,78.55
2023-03-05T15:59:15.328Z,58.25
2023-03-05T16:01:50.543Z,19.83
2023-03-05T16:04:22.621Z,33.35
2023-03-05T16:06:59.079Z,28.48
2023-03-05T16:09:34.942Z,27.05
2023-03-05T16:12:10.368Z,77.72
2023-03-05T16:14:43.273Z,36.80
2023-03-05T16:17:18.208Z,25.42
2023-03-05T16:19:54.036Z,23.63
2023-03-05T16:22:27.473Z,19.88
2023-03-05T16:25:01.341Z,68.43
2023-03-05T16:27:34.194Z,23.17
2023-03-05T16:30:07.447Z,28.27
2023-03-05T16:32:39.615Z,16.92
2023-03-05T16:35:12.506Z,22.70
2023-03-05T16:37:46.052Z,29.85
2023-03-05T16:40:18.546Z,29.38
2023-03-05T16:42:50.675Z,41.63
2023-03-05T16:45:22.682Z,34.20
2023-03-05T16:47:54.673Z,21.17
2023-03-05T16:50:26.691Z,21.27
2023-03-05T16:53:00.115Z,24.83
2023-03-05T16:55:32.140Z,33.85
2023-03-05T16:58:04.188Z,34.05
2023-03-05T17:00:36.243Z,23.88
2023-03-05T17:03:08.592Z,31.65
2023-03-05T17:05:40.746Z,29.73
2023-03-05T17:08:14.873Z,15.52
2023-03-05T17:10:46.866Z,17.55
2023-03-05T17:13:18.971Z,14.27
2023-03-05T17:15:52.333Z,15.15
2023-03-05T17:18:26.797Z,9.00
2023-03-05T17:20:59.194Z,12.60
2023-03-05T17:23:32.626Z,12.55
2023-03-05T17:26:05.780Z,15.57
2023-03-05T17:28:38.458Z,22.77
2023-03-05T17:31:11.050Z,33.05
2023-03-05T17:33:43.511Z,17.25
2023-03-05T17:36:17.532Z,13.27
2023-03-05T17:38:52.045Z,27.25
2023-03-05T17:41:24.484Z,26.00
2023-03-05T17:43:56.496Z,33.30
2023-03-05T17:46:28.664Z,86.38
2023-03-05T17:49:00.696Z,120.60
2023-03-05T17:51:32.695Z,95.05
2023-03-05T17:54:06.159Z,82.07
2023-03-05T17:56:38.179Z,60.95
2023-03-05T17:59:10.206Z,23.75
2023-03-05T18:01:42.339Z,20.42
2023-03-05T18:04:15.358Z,17.73
2023-03-05T18:06:47.449Z,15.90
2023-03-05T18:09:20.891Z,11.85
2023-03-05T18:11:53.112Z,19.85
2023-03-05T18:14:25.377Z,22.23
2023-03-05T18:16:59.171Z,13.98
2023-03-05T18:19:31.447Z,8.98
2023-03-05T18:22:03.571Z,11.05
2023-03-05T18:24:37.080Z,8.05
2023-03-05T18:27:09.217Z,8.55
2023-03-05T18:29:41.408Z,14.18
2023-03-05T18:32:13.549Z,32.97
2023-03-05T18:34:45.573Z,24.27
2023-03-05T18:37:17.666Z,16.88
2023-03-05T18:39:51.877Z,15.45
2023-03-05T18:42:23.883Z,12.60
2023-03-05T18:44:56.986Z,12.68
2023-03-05T18:47:29.474Z,14.27
2023-03-05T18:50:01.656Z,9.63
2023-03-05T18:52:33.636Z,7.43
2023-03-05T18:55:08.009Z,9.98
2023-03-05T18:57:39.905Z,12.57
2023-03-05T19:00:14.707Z,9.85
2023-03-05T19:02:46.805Z,12.73
2023-03-05T19:05:19.075Z,11.13
2023-03-05T19:07:51.047Z,15.73
2023-03-05T19:10:24.700Z,12.98
2023-03-05T19:13:43.783Z,9.23
2023-03-05T19:16:17.875Z,12.65
2023-03-05T19:19:24.692Z,16.58
2023-03-05T19:21:59.700Z,19.95
2023-03-05T19:24:32.489Z,13.40
2023-03-05T19:27:13.567Z,10.85
2023-03-05T19:29:45.651Z,15.80
2023-03-05T19:32:18.381Z,10.32
2023-03-05T19:34:50.956Z,13.57
2023-03-05T19:37:23.538Z,14.27
2023-03-05T19:39:55.615Z,14.90
2023-03-05T19:42:28.923Z,13.35
2023-03-05T19:45:01.765Z,12.90
2023-03-05T19:47:33.723Z,13.05
2023-03-05T19:50:06.835Z,9.50
2023-03-05T19:52:38.784Z,15.02
2023-03-05T19:55:11.214Z,12.90
2023-03-05T19:57:44.691Z,13.15
2023-03-05T20:00:17.560Z,15.25
2023-03-05T20:02:49.500Z,17.83
2023-03-05T20:05:25.564Z,15.63
2023-03-05T20:07:57.787Z,15.35
2023-03-05T20:10:29.946Z,18.65
2023-03-05T20:13:03.522Z,19.30
2023-03-05T20:15:35.535Z,23.25
2023-03-05T20:18:09.650Z,18.77
2023-03-05T20:20:41.956Z,20.85
2023-03-05T20:23:13.892Z,20.80
2023-03-05T20:25:45.859Z,19.42
2023-03-05T20:28:25.719Z,18.83
2023-03-05T20:30:59.397Z,26.70
2023-03-05T20:33:31.470Z,27.08
2023-03-05T20:36:03.529Z,29.92
2023-03-05T20:38:35.589Z,22.55
2023-03-05T20:41:09.169Z,25.92
2023-03-05T20:43:44.909Z,64.25
2023-03-05T20:46:18.391Z,72.35
2023-03-05T20:48:52.181Z,106.53
2023-03-05T20:51:25.925Z,74.15
2023-03-05T20:54:03.136Z,27.85
2023-03-05T20:56:36.170Z,21.15
2023-03-05T20:59:10.824Z,15.30
2023-03-05T21:01:42.928Z,12.75
2023-03-05T21:04:14.940Z,13.52
2023-03-05T21:06:51.582Z,12.55
2023-03-05T21:09:23.517Z,14.45
2023-03-05T21:11:55.716Z,13.68
2023-03-05T21:14:29.126Z,15.20
2023-03-05T21:17:01.089Z,15.45
2023-03-05T21:19:33.778Z,19.85
2023-03-05T21:22:05.792Z,13.23
2023-03-05T21:25:22.267Z,14.85
2023-03-05T21:27:58.048Z,12.98
2023-03-05T21:30:34.576Z,16.08
2023-03-05T21:33:09.022Z,18.63
2023-03-05T21:35:42.032Z,11.65
2023-03-05T21:38:14.389Z,15.32
2023-03-05T21:40:48.557Z,12.75
2023-03-05T21:43:23.055Z,13.32
2023-03-05T21:45:57.792Z,16.67
2023-03-05T21:48:30.515Z,14.57
2023-03-05T21:51:57.836Z,11.20
2023-03-05T21:54:39.566Z,13.52
2023-03-05T21:57:12.231Z,13.55
2023-03-05T21:59:44.269Z,16.67
2023-03-05T22:02:19.538Z,15.98
2023-03-05T22:04:51.815Z,81.60
2023-03-05T22:07:24.099Z,30.13
2023-03-05T22:09:56.903Z,15.88
2023-03-05T22:13:12.084Z,20.02
2023-03-05T22:15:46.200Z,23.02
2023-03-05T22:18:22.349Z,12.80
2023-03-05T22:20:55.891Z,19.20
2023-03-05T22:23:31.348Z,15.55
2023-03-05T22:26:05.170Z,15.05
2023-03-05T22:28:38.959Z,19.33
2023-03-05T22:31:11.015Z,16.35
2023-03-05T22:33:44.438Z,14.15
2023-03-05T22:36:16.685Z,13.45
2023-03-05T22:38:48.672Z,12.18
2023-03-05T22:41:21.372Z,8.88
2023-03-05T22:43:53.457Z,14.35
2023-03-05T22:46:27.382Z,11.05
2023-03-05T22:49:00.782Z,9.35
2023-03-05T22:51:32.767Z,10.98
2023-03-05T22:54:05.210Z,10.27
2023-03-05T22:56:37.175Z,110.93
2023-03-05T22:59:09.128Z,26.42
2023-03-05T23:01:41.189Z,25.98
2023-03-05T23:04:49.310Z,14.27
2023-03-05T23:07:23.187Z,13.85
2023-03-05T23:09:56.919Z,14.35
2023-03-05T23:12:31.029Z,13.98
2023-03-05T23:15:05.424Z,11.35
2023-03-05T23:17:37.965Z,13.00
2023-03-05T23:20:15.464Z,11.68
2023-03-05T23:22:48.800Z,11.75
2023-03-05T23:25:20.885Z,11.32
2023-03-05T23:27:53.646Z,10.88
2023-03-05T23:30:27.136Z,12.07
2023-03-05T23:33:02.469Z,11.20
2023-03-05T23:35:38.271Z,13.02
2023-03-05T23:38:13.542Z,12.80
2023-03-05T23:40:47.530Z,8.32
2023-03-05T23:43:21.101Z,8.73
2023-03-05T23:45:55.107Z,10.27
2023-03-05T23:48:28.460Z,12.68
2023-03-05T23:51:01.849Z,10.18
2023-03-05T23:53:33.932Z,6.15
2023-03-05T23:56:10.101Z,5.78
2023-03-05T23:58:42.818Z,9.70
